Time;durP1;ratioP1;P1;durP2;ratioP2;P2;SDS_P1;SDS_P2;PMS_P1;PMS_P2;Temp;Humidity;BMP_temperature;BMP_pressure;BME280_temperature;BME280_humidity;BME280_pressure;Samples;Min_cycle;Max_cycle;Signal;HPM_P1;HPM_P2
2021/07/10 00:00:51;;;;;;;0.13;0.13;;;14.80;99.90;;;;;;5034877;28;20081;-76
2021/07/10 00:03:18;;;;;;;0.10;0.10;;;14.80;99.90;;;;;;5033422;28;20021;-76
2021/07/10 00:05:43;;;;;;;0.10;0.10;;;14.80;99.90;;;;;;5033433;28;20025;-75
2021/07/10 00:08:09;;;;;;;0.10;0.10;;;14.90;99.90;;;;;;5033333;28;20091;-76
2021/07/10 00:10:35;;;;;;;0.25;0.25;;;14.90;99.90;;;;;;5033276;28;20434;-76
2021/07/10 00:13:01;;;;;;;0.08;0.08;;;14.80;99.90;;;;;;5032753;28;20099;-76
2021/07/10 00:15:27;;;;;;;0.10;0.10;;;14.80;99.90;;;;;;5034627;28;20029;-76
2021/07/10 00:17:53;;;;;;;0.10;0.10;;;14.80;99.90;;;;;;5034390;28;20477;-76
2021/07/10 00:20:22;;;;;;;0.20;0.20;;;14.60;99.90;;;;;;5033229;28;20032;-76
2021/07/10 00:22:48;;;;;;;0.30;0.30;;;14.60;99.90;;;;;;5034442;28;20025;-76
2021/07/10 00:25:17;;;;;;;0.00;0.00;;;14.40;99.90;;;;;;5034306;28;20478;-76
2021/07/10 00:27:44;;;;;;;0.10;0.10;;;14.50;99.90;;;;;;5032627;28;20025;-76
2021/07/10 00:30:11;;;;;;;0.10;0.10;;;14.60;99.90;;;;;;5033110;28;20017;-76
2021/07/10 00:32:37;;;;;;;0.10;0.10;;;14.70;99.90;;;;;;5033046;28;20017;-76
2021/07/10 00:35:08;;;;;;;0.10;0.10;;;14.60;99.90;;;;;;5034503;28;20439;-76
2021/07/10 00:37:34;;;;;;;0.10;0.10;;;14.60;99.90;;;;;;5033988;28;20029;-76
2021/07/10 00:40:00;;;;;;;0.10;0.10;;;14.50;99.90;;;;;;5032933;28;20040;-76
2021/07/10 00:42:25;;;;;;;0.10;0.10;;;14.60;99.90;;;;;;5034030;28;20026;-76
2021/07/10 00:44:51;;;;;;;0.10;0.10;;;14.40;99.90;;;;;;5034110;28;20121;-76
2021/07/10 00:47:17;;;;;;;0.13;0.13;;;14.30;99.90;;;;;;5032448;28;20029;-76
2021/07/10 00:49:43;;;;;;;0.10;0.10;;;14.10;99.90;;;;;;5016227;28;20017;-76
2021/07/10 00:52:09;;;;;;;0.10;0.10;;;14.00;99.90;;;;;;5033849;28;20036;-76
2021/07/10 00:54:36;;;;;;;0.25;0.20;;;14.00;99.90;;;;;;5032650;28;20075;-76
2021/07/10 00:57:04;;;;;;;0.10;0.10;;;13.90;99.90;;;;;;5033789;28;20397;-76
2021/07/10 00:59:32;;;;;;;0.00;0.00;;;13.90;99.90;;;;;;5033697;28;20036;-76
2021/07/10 01:01:58;;;;;;;0.10;0.10;;;14.10;99.90;;;;;;5033729;28;20033;-76
2021/07/10 01:04:23;;;;;;;0.10;0.10;;;14.20;99.90;;;;;;5033631;28;20385;-76
2021/07/10 01:06:49;;;;;;;0.10;0.10;;;14.20;99.90;;;;;;5033757;28;20106;-76
2021/07/10 01:09:15;;;;;;;0.10;0.10;;;14.20;99.90;;;;;;5033457;28;20025;-77
2021/07/10 01:11:42;;;;;;;0.10;0.10;;;14.20;99.90;;;;;;5032200;28;20148;-76
2021/07/10 01:14:08;;;;;;;0.10;0.10;;;14.20;99.90;;;;;;5033417;28;20025;-76
2021/07/10 01:16:34;;;;;;;0.13;0.13;;;14.10;99.90;;;;;;5032331;28;20099;-76
2021/07/10 01:19:00;;;;;;;0.00;0.00;;;14.20;99.90;;;;;;5033316;28;20116;-76
2021/07/10 01:21:25;;;;;;;0.10;0.10;;;14.20;99.90;;;;;;5032304;28;20033;-76
2021/07/10 01:23:51;;;;;;;0.10;0.10;;;14.10;99.90;;;;;;5032048;28;20040;-75
2021/07/10 01:26:20;;;;;;;0.10;0.10;;;14.10;99.90;;;;;;5031745;28;20025;-76
2021/07/10 01:28:47;;;;;;;0.10;0.10;;;14.00;99.90;;;;;;5033090;28;20032;-76
2021/07/10 01:31:14;;;;;;;0.10;0.10;;;14.00;99.90;;;;;;5033157;28;20048;-76
2021/07/10 01:33:40;;;;;;;0.10;0.10;;;14.10;99.90;;;;;;5031795;28;20091;-76
2021/07/10 01:36:06;;;;;;;0.25;0.25;;;14.20;99.90;;;;;;5031803;28;20536;-76
2021/07/10 01:38:32;;;;;;;0.10;0.10;;;14.30;99.90;;;;;;5032772;28;20055;-76
2021/07/10 01:40:58;;;;;;;0.10;0.10;;;14.30;99.90;;;;;;5031711;28;20116;-77
2021/07/10 01:43:25;;;;;;;0.10;0.10;;;14.30;99.90;;;;;;5032947;28;20080;-77
2021/07/10 01:45:51;;;;;;;0.10;0.10;;;14.30;99.90;;;;;;5031578;28;20018;-76
2021/07/10 01:48:17;;;;;;;0.10;0.10;;;14.30;99.90;;;;;;5031462;28;20092;-76
2021/07/10 01:50:44;;;;;;;0.10;0.10;;;14.20;99.90;;;;;;5031621;28;20030;-76
2021/07/10 01:53:11;;;;;;;0.10;0.10;;;14.30;99.90;;;;;;5031415;28;20507;-75
2021/07/10 01:55:37;;;;;;;0.10;0.10;;;14.20;99.90;;;;;;5032759;28;20040;-76
2021/07/10 01:58:03;;;;;;;0.10;0.10;;;14.30;99.90;;;;;;5032519;28;20057;-76
2021/07/10 02:00:38;;;;;;;0.17;0.17;;;14.30;99.90;;;;;;5032611;28;20024;-76
2021/07/10 02:03:04;;;;;;;0.20;0.20;;;14.40;99.90;;;;;;5032888;28;20036;-76
2021/07/10 02:05:31;;;;;;;0.20;0.20;;;14.40;99.90;;;;;;5014735;28;20448;-75
2021/07/10 02:07:58;;;;;;;0.10;0.10;;;14.40;99.90;;;;;;5014743;28;20528;-76
2021/07/10 02:10:28;;;;;;;0.10;0.10;;;14.40;99.90;;;;;;5032485;28;20349;-76
2021/07/10 02:12:58;;;;;;;0.57;0.57;;;14.20;99.90;;;;;;5032458;28;20026;-76
2021/07/10 02:15:25;;;;;;;0.10;0.10;;;14.00;99.90;;;;;;5032404;28;20025;-76
2021/07/10 02:17:51;;;;;;;0.10;0.10;;;13.90;99.90;;;;;;5030921;28;20473;-76
2021/07/10 02:20:21;;;;;;;0.10;0.10;;;13.80;99.90;;;;;;5014544;28;20052;-76
2021/07/10 02:22:48;;;;;;;0.08;0.08;;;13.80;99.90;;;;;;5031091;28;20033;-76
2021/07/10 02:25:16;;;;;;;0.10;0.10;;;13.90;99.90;;;;;;5030936;28;20029;-76
2021/07/10 02:27:42;;;;;;;0.10;0.10;;;13.90;99.90;;;;;;5031939;28;20041;-76
2021/07/10 02:30:14;;;;;;;0.10;0.10;;;14.10;99.90;;;;;;5030819;28;20051;-75
2021/07/10 02:32:40;;;;;;;0.10;0.10;;;14.20;99.90;;;;;;5032174;28;20021;-73
2021/07/10 02:35:08;;;;;;;0.10;0.10;;;14.20;99.90;;;;;;5031833;28;20033;-73
2021/07/10 02:37:35;;;;;;;0.10;0.10;;;14.30;99.90;;;;;;5031951;28;20026;-73
2021/07/10 02:40:02;;;;;;;0.10;0.10;;;14.30;99.90;;;;;;5030752;28;20033;-73
2021/07/10 02:42:28;;;;;;;0.08;0.08;;;14.30;99.90;;;;;;5030686;28;20087;-73
2021/07/10 02:44:55;;;;;;;0.10;0.10;;;14.20;99.90;;;;;;5031930;28;20172;-73
2021/07/10 02:47:21;;;;;;;0.10;0.10;;;14.10;99.90;;;;;;5031849;28;20104;-73
2021/07/10 02:49:46;;;;;;;0.38;0.38;;;13.80;99.90;;;;;;5030780;28;20080;-73
2021/07/10 02:52:12;;;;;;;0.10;0.10;;;13.70;99.90;;;;;;5031937;28;20442;-73
2021/07/10 02:54:38;;;;;;;0.00;0.00;;;13.60;99.90;;;;;;5030729;28;20033;-73
2021/07/10 02:57:04;;;;;;;0.10;0.10;;;13.70;99.90;;;;;;5031718;28;20092;-73
2021/07/10 02:59:30;;;;;;;0.10;0.10;;;13.80;99.90;;;;;;5031780;28;20030;-73
2021/07/10 03:01:56;;;;;;;0.10;0.10;;;13.90;99.90;;;;;;5030638;28;20095;-73
2021/07/10 03:04:22;;;;;;;0.10;0.10;;;14.00;99.90;;;;;;5031676;28;20393;-73
2021/07/10 03:06:47;;;;;;;0.10;0.10;;;14.00;99.90;;;;;;5031816;28;20538;-73
2021/07/10 03:09:13;;;;;;;0.10;0.10;;;14.00;99.90;;;;;;5031724;28;20030;-73
2021/07/10 03:11:39;;;;;;;0.25;0.25;;;14.00;99.90;;;;;;5030460;28;20021;-73
2021/07/10 03:14:04;;;;;;;0.10;0.10;;;13.90;99.90;;;;;;5030444;28;20443;-73
2021/07/10 03:16:30;;;;;;;0.10;0.10;;;13.80;99.90;;;;;;5030476;28;20055;-73
2021/07/10 03:18:56;;;;;;;0.10;0.10;;;13.60;99.90;;;;;;5031656;28;20080;-73
2021/07/10 03:21:22;;;;;;;0.10;0.10;;;13.50;99.90;;;;;;5031608;28;20033;-73
2021/07/10 03:23:48;;;;;;;0.10;0.10;;;13.80;99.90;;;;;;5031338;28;20030;-73
2021/07/10 03:26:13;;;;;;;0.10;0.10;;;13.80;99.90;;;;;;5013756;28;20083;-73
2021/07/10 03:28:40;;;;;;;0.10;0.10;;;13.80;99.90;;;;;;5030203;28;20026;-73
2021/07/10 03:31:07;;;;;;;0.10;0.10;;;13.90;99.90;;;;;;5030402;28;20026;-73
2021/07/10 03:33:36;;;;;;;0.10;0.10;;;13.90;99.90;;;;;;5030258;28;20056;-73
2021/07/10 03:36:05;;;;;;;0.10;0.10;;;14.00;99.90;;;;;;5031517;28;20105;-73
2021/07/10 03:38:31;;;;;;;0.10;0.10;;;14.10;99.90;;;;;;5013572;28;20883;-73
2021/07/10 03:40:57;;;;;;;0.13;0.13;;;14.10;99.90;;;;;;5030260;28;20032;-73
2021/07/10 03:43:23;;;;;;;0.10;0.10;;;14.30;99.90;;;;;;5031269;28;20033;-73
2021/07/10 03:45:52;;;;;;;0.10;0.10;;;14.50;99.90;;;;;;5031440;28;20033;-73
2021/07/10 03:48:19;;;;;;;0.10;0.10;;;14.40;99.90;;;;;;5034709;28;20048;-73
2021/07/10 03:50:45;;;;;;;0.10;0.10;;;14.40;99.90;;;;;;5035129;28;20393;-73
2021/07/10 03:53:12;;;;;;;0.10;0.10;;;14.30;99.90;;;;;;5033565;28;20029;-73
2021/07/10 03:55:37;;;;;;;0.10;0.10;;;14.40;99.90;;;;;;5033796;28;20477;-73
2021/07/10 03:58:03;;;;;;;0.10;0.10;;;14.30;99.90;;;;;;5034795;28;20026;-73
2021/07/10 04:00:29;;;;;;;0.10;0.10;;;14.50;99.90;;;;;;5033652;28;20021;-73
2021/07/10 04:02:55;;;;;;;0.10;0.10;;;14.60;99.90;;;;;;5033607;28;20025;-73
2021/07/10 04:05:21;;;;;;;0.10;0.10;;;14.60;99.90;;;;;;5033517;28;20401;-73
2021/07/10 04:07:48;;;;;;;0.10;0.10;;;14.70;99.90;;;;;;5034653;28;20115;-73
2021/07/10 04:10:15;;;;;;;0.10;0.10;;;14.90;99.90;;;;;;5034766;28;20048;-73
2021/07/10 04:12:42;;;;;;;0.10;0.10;;;14.90;99.90;;;;;;5034598;28;20018;-73
2021/07/10 04:15:09;;;;;;;0.10;0.10;;;14.90;99.90;;;;;;5033385;28;20396;-73
2021/07/10 04:17:35;;;;;;;0.10;0.10;;;14.80;99.90;;;;;;5034430;28;20064;-73
2021/07/10 04:20:01;;;;;;;0.10;0.10;;;14.80;99.90;;;;;;5034475;28;20033;-72
2021/07/10 04:22:27;;;;;;;0.10;0.10;;;14.80;99.90;;;;;;5033186;28;20025;-73
2021/07/10 04:24:53;;;;;;;0.10;0.10;;;14.80;99.90;;;;;;5053741;23;20453;-92
2021/07/10 04:27:19;;;;;;;0.20;0.20;;;14.80;99.90;;;;;;5016635;28;20025;-92
2021/07/10 04:29:47;;;;;;;0.10;0.10;;;14.80;99.90;;;;;;5017537;28;20048;-92
2021/07/10 04:32:14;;;;;;;0.10;0.10;;;14.80;99.90;;;;;;5017574;28;20033;-94
2021/07/10 04:34:40;;;;;;;0.10;0.10;;;14.80;99.90;;;;;;5017323;28;20026;-93
2021/07/10 04:37:06;;;;;;;0.10;0.10;;;14.90;99.90;;;;;;5017312;28;20041;-92
2021/07/10 04:39:32;;;;;;;0.10;0.10;;;15.00;99.90;;;;;;5017057;28;20569;-92
2021/07/10 04:41:57;;;;;;;0.28;0.28;;;15.10;99.90;;;;;;5016956;28;20033;-93
2021/07/10 04:44:23;;;;;;;0.10;0.10;;;15.00;99.90;;;;;;5017245;28;20525;-92
2021/07/10 04:46:49;;;;;;;0.10;0.10;;;15.00;99.90;;;;;;5017032;28;20026;-92
2021/07/10 04:49:15;;;;;;;0.10;0.10;;;15.00;99.90;;;;;;5032036;28;20028;-92
2021/07/10 04:51:41;;;;;;;1.17;1.08;;;15.20;99.90;;;;;;5033170;28;20060;-92
2021/07/10 04:54:07;;;;;;;0.40;0.40;;;15.30;99.90;;;;;;5020516;28;20030;-93
2021/07/10 04:56:32;;;;;;;0.00;0.00;;;15.30;99.90;;;;;;5020304;28;20022;-92
2021/07/10 04:58:58;;;;;;;0.30;0.30;;;15.20;99.90;;;;;;5019995;28;20033;-92
2021/07/10 05:01:24;;;;;;;0.10;0.10;;;15.30;99.90;;;;;;5020060;28;20029;-92
2021/07/10 05:03:50;;;;;;;0.60;0.47;;;15.10;99.90;;;;;;5020549;28;20026;-92
2021/07/10 05:06:15;;;;;;;0.10;0.10;;;15.00;99.90;;;;;;5017301;28;20014;-92
2021/07/10 05:08:41;;;;;;;0.20;0.20;;;14.90;99.90;;;;;;5017509;28;20112;-92
2021/07/10 05:11:07;;;;;;;0.10;0.10;;;14.80;99.90;;;;;;5017556;28;20521;-92
2021/07/10 05:13:33;;;;;;;0.10;0.10;;;14.80;99.90;;;;;;5017635;28;20125;-92
2021/07/10 05:15:59;;;;;;;0.10;0.10;;;14.80;99.90;;;;;;5016691;28;20065;-92
2021/07/10 05:18:24;;;;;;;0.00;0.00;;;15.10;99.90;;;;;;5024131;28;20060;-92
2021/07/10 05:20:50;;;;;;;0.10;0.10;;;15.20;99.90;;;;;;5020076;28;20025;-92
2021/07/10 05:23:16;;;;;;;0.10;0.10;;;15.40;99.90;;;;;;5017212;28;20026;-91
2021/07/10 05:25:42;;;;;;;0.10;0.10;;;15.30;99.90;;;;;;5019620;28;20033;-92
2021/07/10 05:28:08;;;;;;;0.10;0.10;;;15.20;99.90;;;;;;5016359;28;20022;-92
2021/07/10 05:30:33;;;;;;;0.10;0.10;;;15.30;99.90;;;;;;5016551;28;20095;-92
2021/07/10 05:32:59;;;;;;;0.10;0.10;;;15.40;99.90;;;;;;5026528;28;20021;-92
2021/07/10 05:35:46;;;;;;;0.10;0.10;;;15.50;99.90;;;;;;5036147;28;20025;-92
2021/07/10 05:38:13;;;;;;;0.20;0.20;;;15.50;99.90;;;;;;5036425;28;20116;-92
2021/07/10 05:40:39;;;;;;;0.32;0.32;;;15.50;99.90;;;;;;5036150;28;20506;-91
2021/07/10 05:43:05;;;;;;;0.00;0.00;;;15.60;99.90;;;;;;5036088;28;20037;-91
2021/07/10 05:45:30;;;;;;;0.10;0.10;;;15.70;99.90;;;;;;5036310;28;20171;-91
2021/07/10 05:48:34;;;;;;;0.40;0.40;;;15.80;99.90;;;;;;5036005;28;20025;-92
2021/07/10 05:51:00;;;;;;;0.10;0.10;;;15.90;99.90;;;;;;5032157;28;20535;-92
2021/07/10 05:53:43;;;;;;;0.22;0.22;;;16.00;99.90;;;;;;5036417;28;20029;-91
2021/07/10 05:56:09;;;;;;;0.10;0.10;;;16.20;99.90;;;;;;5036027;28;20025;-91
2021/07/10 06:02:21;;;;;;;0.10;0.10;;;16.40;99.90;;;;;;5047240;28;20187;-92
2021/07/10 06:05:17;;;;;;;;;;;;;;;;;;;;;
2021/07/10 06:08:30;;;;;;;0.10;0.10;;;16.50;99.90;;;;;;5051631;28;20024;-91
2021/07/10 06:11:33;;;;;;;;;;;;;;;;;;;;;
2021/07/10 06:17:43;;;;;;;0.10;0.10;;;16.70;99.90;;;;;;5043908;28;20037;-91
2021/07/10 06:20:47;;;;;;;;;;;;;;;;;;;;;
2021/07/10 06:23:45;;;;;;;0.10;0.10;;;16.80;99.90;;;;;;5051642;28;20071;-92
2021/07/10 06:27:07;;;;;;;0.10;0.10;;;16.90;99.90;;;;;;5051656;28;20033;-92
2021/07/10 06:30:15;;;;;;;0.10;0.10;;;17.10;99.90;;;;;;5048221;28;20029;-92
2021/07/10 06:33:02;;;;;;;0.55;0.55;;;17.30;99.90;;;;;;5024028;28;20032;-91
2021/07/10 06:35:41;;;;;;;0.80;0.80;;;17.30;99.90;;;;;;5035036;28;20033;-92
2021/07/10 06:38:46;;;;;;;0.40;0.40;;;17.40;99.90;;;;;;5052552;28;20098;-91
2021/07/10 06:41:58;;;;;;;0.10;0.10;;;17.50;99.90;;;;;;5037553;28;20077;-91
2021/07/10 06:44:38;;;;;;;0.10;0.10;;;17.60;99.90;;;;;;5035734;28;20056;-91
2021/07/10 06:47:15;;;;;;;0.75;0.75;;;17.70;99.90;;;;;;5052037;28;20033;-91
2021/07/10 06:50:16;;;;;;;0.10;0.10;;;17.80;99.90;;;;;;5051868;28;20227;-91
2021/07/10 06:52:51;;;;;;;0.30;0.30;;;17.80;99.90;;;;;;5052156;28;20040;-91
2021/07/10 06:55:28;;;;;;;0.05;0.05;;;18.00;99.90;;;;;;5035947;28;20033;-91
2021/07/10 06:57:57;;;;;;;1.27;1.08;;;18.10;99.90;;;;;;5035537;28;20041;-91
2021/07/10 07:00:23;;;;;;;0.20;0.20;;;18.20;99.90;;;;;;5034661;28;20482;-91
2021/07/10 07:02:49;;;;;;;0.73;0.63;;;18.40;99.90;;;;;;5035494;28;20083;-91
2021/07/10 07:05:14;;;;;;;0.22;0.22;;;18.50;99.90;;;;;;5034622;28;20025;-91
2021/07/10 07:07:44;;;;;;;2.10;0.20;;;18.40;99.90;;;;;;5034390;28;20044;-92
2021/07/10 07:10:11;;;;;;;0.20;0.20;;;18.30;99.90;;;;;;5036106;28;20053;-91
2021/07/10 07:12:37;;;;;;;0.20;0.20;;;18.30;99.90;;;;;;5053937;28;20009;-91
2021/07/10 07:15:06;;;;;;;0.73;0.73;;;18.50;99.90;;;;;;5050060;28;20029;-91
2021/07/10 07:17:32;;;;;;;0.25;0.25;;;18.60;99.90;;;;;;5036637;28;20036;-91
2021/07/10 07:19:57;;;;;;;0.10;0.10;;;18.80;99.90;;;;;;5035120;28;20029;-91
2021/07/10 07:22:47;;;;;;;1.88;1.77;;;18.70;99.90;;;;;;5039368;28;20033;-91
2021/07/10 07:25:24;;;;;;;0.13;0.13;;;18.90;99.90;;;;;;5039809;28;20033;-91
2021/07/10 07:27:52;;;;;;;0.85;0.70;;;18.90;99.90;;;;;;5040344;28;20025;-91
2021/07/10 07:30:23;;;;;;;0.50;0.50;;;18.80;99.90;;;;;;5040471;28;20021;-90
2021/07/10 07:32:49;;;;;;;0.45;0.45;;;18.90;99.90;;;;;;5042388;28;20109;-91
2021/07/10 07:35:16;;;;;;;1.17;1.05;;;19.00;99.90;;;;;;5044140;28;20052;-91
2021/07/10 07:37:42;;;;;;;0.35;0.35;;;19.20;99.90;;;;;;5044379;28;20029;-91
2021/07/10 07:40:10;;;;;;;0.52;0.30;;;19.40;99.90;;;;;;5038290;28;20120;-91
2021/07/10 07:42:42;;;;;;;0.57;0.55;;;19.50;99.90;;;;;;5038293;28;20029;-91
2021/07/10 07:45:31;;;;;;;0.75;0.38;;;19.70;99.90;;;;;;5023899;28;20025;-90
2021/07/10 07:48:15;;;;;;;0.52;0.52;;;19.70;99.90;;;;;;5037610;28;20112;-90
2021/07/10 07:50:46;;;;;;;0.45;0.45;;;19.70;99.90;;;;;;5018451;28;20467;-91
2021/07/10 07:53:59;;;;;;;0.10;0.10;;;19.70;99.90;;;;;;5041644;28;20025;-91
2021/07/10 07:56:44;;;;;;;0.10;0.10;;;19.90;99.90;;;;;;5019822;28;20033;-91
2021/07/10 08:00:09;;;;;;;0.10;0.10;;;20.20;99.90;;;;;;5019615;28;20037;-92
2021/07/10 08:03:01;;;;;;;0.10;0.10;;;20.40;99.90;;;;;;5008130;28;20474;-91
2021/07/10 08:06:20;;;;;;;0.52;0.52;;;20.40;99.90;;;;;;5022425;28;20141;-91
2021/07/10 08:09:08;;;;;;;1.05;0.93;;;20.50;99.90;;;;;;5018805;28;20444;-92
2021/07/10 08:12:19;;;;;;;0.13;0.13;;;20.50;99.90;;;;;;5028577;28;20034;-93
2021/07/10 08:14:57;;;;;;;0.75;0.75;;;20.60;99.60;;;;;;5006069;28;20037;-90
2021/07/10 08:18:01;;;;;;;0.43;0.43;;;20.90;97.30;;;;;;5016928;28;20410;-92
2021/07/10 08:20:54;;;;;;;0.45;0.38;;;21.00;96.60;;;;;;5018622;28;20068;-91
2021/07/10 08:23:34;;;;;;;0.88;0.82;;;21.20;96.60;;;;;;5016822;28;20065;-91
2021/07/10 08:26:42;;;;;;;0.10;0.10;;;21.30;95.50;;;;;;5034614;28;20116;-92
2021/07/10 08:29:40;;;;;;;0.32;0.32;;;21.40;94.10;;;;;;5017355;28;20069;-93
2021/07/10 08:32:14;;;;;;;0.77;0.52;;;21.50;93.60;;;;;;5018178;28;20083;-92
2021/07/10 08:34:58;;;;;;;0.08;0.08;;;21.50;92.80;;;;;;5018323;28;20034;-92
2021/07/10 08:37:41;;;;;;;0.25;0.25;;;21.60;92.90;;;;;;5018318;28;20030;-92
2021/07/10 08:40:33;;;;;;;1.27;1.00;;;21.90;92.60;;;;;;5017781;28;20030;-92
2021/07/10 08:43:27;;;;;;;0.05;0.05;;;21.90;92.10;;;;;;5033940;28;20021;-91
2021/07/10 08:53:09;;;;;;;0.60;0.50;;;22.50;89.40;;;;;;5026648;28;20494;-92
2021/07/10 08:55:37;;;;;;;0.47;0.47;;;22.70;88.60;;;;;;5004858;28;20029;-92
2021/07/10 08:58:05;;;;;;;0.00;0.00;;;22.80;89.30;;;;;;5017101;28;20188;-92
2021/07/10 09:00:37;;;;;;;0.63;0.28;;;22.90;88.40;;;;;;5016351;28;20026;-92
2021/07/10 09:03:04;;;;;;;0.40;0.40;;;23.10;87.60;;;;;;5017035;28;20426;-92
2021/07/10 09:05:32;;;;;;;0.00;0.00;;;23.30;82.80;;;;;;5017032;28;20029;-92
2021/07/10 09:08:13;;;;;;;0.13;0.13;;;23.30;81.90;;;;;;5016558;28;20133;-92
2021/07/10 09:10:41;;;;;;;0.45;0.45;;;23.50;80.30;;;;;;5016509;28;20021;-92
2021/07/10 09:13:14;;;;;;;0.10;0.10;;;23.70;81.10;;;;;;5017906;28;20060;-92
2021/07/10 09:15:40;;;;;;;0.63;0.35;;;23.70;81.40;;;;;;5017163;28;20025;-92
2021/07/10 09:18:10;;;;;;;4.95;0.82;;;23.80;80.60;;;;;;5016335;28;20399;-92
2021/07/10 09:20:37;;;;;;;0.22;0.22;;;23.70;80.60;;;;;;5016118;28;20022;-92
2021/07/10 09:23:23;;;;;;;0.73;0.73;;;23.90;79.80;;;;;;5016341;28;20075;-92
2021/07/10 09:25:48;;;;;;;0.10;0.10;;;23.90;78.70;;;;;;5017950;28;20029;-92
2021/07/10 09:28:15;;;;;;;0.20;0.20;;;24.20;75.20;;;;;;5015808;28;20164;-92
2021/07/10 09:30:43;;;;;;;0.35;0.35;;;24.50;74.30;;;;;;5016977;28;20029;-91
2021/07/10 09:33:18;;;;;;;0.47;0.30;;;24.50;72.50;;;;;;5016715;28;20023;-92
2021/07/10 09:35:58;;;;;;;0.00;0.00;;;24.60;72.60;;;;;;5016269;28;20017;-91
2021/07/10 09:38:27;;;;;;;0.40;0.40;;;24.60;73.80;;;;;;5015863;28;20026;-92
2021/07/10 09:40:58;;;;;;;0.25;0.25;;;24.50;72.90;;;;;;5015967;28;20021;-93
2021/07/10 09:43:29;;;;;;;0.37;0.33;;;24.70;71.40;;;;;;5015615;28;20368;-92
2021/07/10 09:45:57;;;;;;;0.23;0.23;;;24.80;71.10;;;;;;5015247;28;20139;-92
2021/07/10 09:48:41;;;;;;;0.00;0.00;;;24.90;71.90;;;;;;5016420;28;20279;-93
2021/07/10 09:51:16;;;;;;;0.00;0.00;;;25.10;71.60;;;;;;5015793;28;20112;-92
2021/07/10 09:53:42;;;;;;;0.10;0.10;;;25.50;71.40;;;;;;5015383;28;20053;-92
2021/07/10 09:56:09;;;;;;;2.60;0.60;;;25.60;70.50;;;;;;5015711;28;20056;-92
2021/07/10 09:58:35;;;;;;;0.25;0.17;;;25.60;68.80;;;;;;5015643;28;20097;-92
2021/07/10 10:01:31;;;;;;;0.25;0.25;;;25.60;70.50;;;;;;5015752;28;20110;-92
2021/07/10 10:04:01;;;;;;;0.82;0.80;;;25.80;68.90;;;;;;5016347;28;20033;-93
2021/07/10 10:06:33;;;;;;;0.52;0.45;;;26.00;68.80;;;;;;5015608;28;20025;-92
2021/07/10 10:09:00;;;;;;;28.38;10.23;;;26.10;65.60;;;;;;5015329;28;20028;-92
2021/07/10 10:11:59;;;;;;;0.00;0.00;;;26.10;66.80;;;;;;5015088;28;20030;-93
2021/07/10 10:14:35;;;;;;;0.28;0.22;;;26.30;68.50;;;;;;5015305;28;20108;-92
2021/07/10 10:17:01;;;;;;;0.20;0.20;;;26.10;65.80;;;;;;5015344;28;20026;-92
2021/07/10 10:19:33;;;;;;;0.03;0.03;;;26.20;67.40;;;;;;5015398;28;20057;-92
2021/07/10 10:22:02;;;;;;;0.38;0.38;;;26.00;68.30;;;;;;5015305;28;20394;-92
2021/07/10 10:24:29;;;;;;;0.77;0.57;;;25.50;68.80;;;;;;5015308;28;20033;-92
2021/07/10 10:26:57;;;;;;;1.10;0.65;;;25.30;70.50;;;;;;5015117;28;20049;-92
2021/07/10 10:29:23;;;;;;;1.25;0.77;;;25.60;69.60;;;;;;5014926;28;20028;-92
2021/07/10 10:31:50;;;;;;;0.55;0.55;;;25.80;67.80;;;;;;5015449;28;20021;-92
2021/07/10 10:34:16;;;;;;;0.50;0.50;;;25.80;70.30;;;;;;5016006;28;20025;-92
2021/07/10 10:36:44;;;;;;;0.20;0.20;;;26.30;68.00;;;;;;5014960;28;20116;-92
2021/07/10 10:39:16;;;;;;;0.15;0.15;;;26.30;66.80;;;;;;5015573;28;20394;-92
2021/07/10 10:41:47;;;;;;;0.15;0.15;;;26.30;65.80;;;;;;5016010;28;20453;-92
2021/07/10 10:44:13;;;;;;;;;;;26.40;64.90;;;;;;5015216;28;20087;-92
2021/07/10 10:47:05;;;;;;;0.52;0.47;;;26.30;65.60;;;;;;5014667;28;19908;-92
2021/07/10 10:49:50;;;;;;;0.00;0.00;;;26.50;66.00;;;;;;5014208;28;20034;-92
2021/07/10 10:52:29;;;;;;;0.00;0.00;;;26.80;64.40;;;;;;5015154;28;20564;-93
2021/07/10 10:55:11;;;;;;;0.47;0.47;;;27.00;62.30;;;;;;5014445;28;20393;-92
2021/07/10 10:57:46;;;;;;;0.73;0.50;;;26.60;62.10;;;;;;5015259;28;20022;-93
2021/07/10 11:00:35;;;;;;;0.08;0.08;;;26.60;63.00;;;;;;5014830;28;20025;-93
2021/07/10 11:03:11;;;;;;;0.47;0.47;;;26.60;61.70;;;;;;5014770;28;20034;-93
2021/07/10 11:05:42;;;;;;;0.70;0.60;;;26.80;61.60;;;;;;5015958;28;20029;-92
2021/07/10 11:08:19;;;;;;;0.17;0.10;;;27.20;62.30;;;;;;5014480;28;20035;-92
2021/07/10 11:10:56;;;;;;;0.50;0.50;;;27.30;59.40;;;;;;5014830;28;20025;-92
2021/07/10 11:13:46;;;;;;;1.73;0.98;;;27.30;59.40;;;;;;5015552;28;20445;-93
2021/07/10 11:16:20;;;;;;;0.17;0.17;;;27.40;59.10;;;;;;5015127;28;20025;-92
2021/07/10 11:18:57;;;;;;;0.00;0.00;;;27.30;58.80;;;;;;5014757;28;20021;-92
2021/07/10 11:21:48;;;;;;;0.22;0.22;;;27.20;59.10;;;;;;5014352;28;20513;-93
2021/07/10 11:26:54;;;;;;;0.65;0.57;;;26.90;60.50;;;;;;5031160;28;20040;-92
2021/07/10 11:29:32;;;;;;;0.00;0.00;;;27.00;58.50;;;;;;5014537;28;20057;-92
2021/07/10 11:32:14;;;;;;;0.00;0.00;;;27.30;58.30;;;;;;5015930;28;20036;-93
2021/07/10 11:34:45;;;;;;;0.30;0.30;;;27.50;58.10;;;;;;5014982;28;20026;-92
2021/07/10 11:37:12;;;;;;;0.00;0.00;;;27.40;56.40;;;;;;5016055;28;20116;-92
2021/07/10 11:39:43;;;;;;;0.28;0.28;;;27.30;56.10;;;;;;5014133;28;20482;-92
2021/07/10 11:42:18;;;;;;;0.17;0.10;;;27.30;58.20;;;;;;5014989;28;20026;-92
2021/07/10 11:44:44;;;;;;;0.00;0.00;;;27.20;57.90;;;;;;5014595;28;20114;-93
2021/07/10 11:47:10;;;;;;;1.15;1.00;;;27.40;59.00;;;;;;5014521;28;20108;-92
2021/07/10 11:49:35;;;;;;;0.47;0.47;;;27.50;57.90;;;;;;5014264;28;20526;-92
2021/07/10 11:52:13;;;;;;;1.48;0.80;;;27.10;58.10;;;;;;5014197;28;20021;-92
2021/07/10 11:54:44;;;;;;;0.15;0.15;;;27.00;58.00;;;;;;5014318;28;20095;-93
2021/07/10 11:57:10;;;;;;;0.00;0.00;;;27.00;59.00;;;;;;5014170;28;20494;-92
2021/07/10 11:59:38;;;;;;;0.00;0.00;;;27.00;59.60;;;;;;5016120;28;20037;-92
2021/07/10 12:02:27;;;;;;;0.08;0.03;;;27.00;60.30;;;;;;5019240;28;20048;-92
2021/07/10 12:05:17;;;;;;;0.00;0.00;;;26.80;60.10;;;;;;5019667;28;20025;-92
2021/07/10 12:07:47;;;;;;;0.38;0.20;;;26.80;61.40;;;;;;5021454;28;20022;-92
2021/07/10 12:10:19;;;;;;;0.13;0.13;;;26.90;60.50;;;;;;5023461;28;20017;-92
2021/07/10 12:12:57;;;;;;;0.10;0.10;;;26.60;59.80;;;;;;5028408;28;20088;-92
2021/07/10 12:15:30;;;;;;;0.40;0.40;;;26.60;61.20;;;;;;5022077;28;20431;-93
2021/07/10 12:18:22;;;;;;;0.75;0.30;;;26.50;60.50;;;;;;5019271;28;20053;-93
2021/07/10 12:20:56;;;;;;;1.30;0.60;;;26.30;60.80;;;;;;5018657;28;20034;-93
2021/07/10 12:23:31;;;;;;;0.20;0.20;;;26.20;62.80;;;;;;5020331;28;20422;-93
2021/07/10 12:26:25;;;;;;;0.03;0.03;;;26.00;62.40;;;;;;5019108;28;20120;-93
2021/07/10 12:28:56;;;;;;;0.35;0.35;;;26.00;63.30;;;;;;5017618;28;20421;-93
2021/07/10 12:31:32;;;;;;;0.00;0.00;;;26.00;62.40;;;;;;5036302;28;20025;-92
2021/07/10 12:34:09;;;;;;;0.30;0.30;;;25.90;63.20;;;;;;5018187;28;20033;-92
2021/07/10 12:36:45;;;;;;;0.20;0.20;;;25.80;64.00;;;;;;5018099;28;20029;-93
2021/07/10 12:39:19;;;;;;;0.40;0.40;;;25.80;64.30;;;;;;5018113;28;20092;-93
2021/07/10 12:42:01;;;;;;;0.40;0.40;;;25.70;63.50;;;;;;5017106;28;20025;-93
2021/07/10 12:44:28;;;;;;;0.00;0.00;;;25.50;64.60;;;;;;5017268;28;20036;-92
2021/07/10 12:47:15;;;;;;;0.20;0.20;;;25.50;64.80;;;;;;5017130;28;20060;-93
2021/07/10 12:49:53;;;;;;;0.20;0.20;;;25.40;65.00;;;;;;5017099;28;20017;-93
2021/07/10 12:52:28;;;;;;;0.15;0.10;;;25.40;65.00;;;;;;5017156;28;20018;-93
2021/07/10 12:55:10;;;;;;;0.10;0.10;;;25.30;64.60;;;;;;5017311;28;20398;-93
2021/07/10 12:57:38;;;;;;;;;;;25.10;65.90;;;;;;5018072;28;20030;-93
2021/07/10 13:00:07;;;;;;;0.10;0.10;;;25.00;67.70;;;;;;5016580;28;19905;-91
2021/07/10 13:02:53;;;;;;;0.40;0.40;;;25.10;66.60;;;;;;5017330;28;20032;-91
2021/07/10 13:05:33;;;;;;;0.03;0.03;;;25.10;66.70;;;;;;5016444;28;20505;-91
2021/07/10 13:08:22;;;;;;;0.00;0.00;;;25.10;67.00;;;;;;5016660;28;20045;-91
2021/07/10 13:11:09;;;;;;;0.20;0.20;;;25.30;66.70;;;;;;5016781;28;20022;-91
2021/07/10 13:13:38;;;;;;;0.43;0.43;;;25.30;66.30;;;;;;5016178;28;20030;-91
2021/07/10 13:16:04;;;;;;;0.40;0.20;;;25.30;65.40;;;;;;5016534;28;20018;-90
2021/07/10 13:18:33;;;;;;;0.17;0.17;;;25.20;66.70;;;;;;5017536;28;20545;-91
2021/07/10 13:21:04;;;;;;;0.10;0.10;;;25.30;66.90;;;;;;5016853;28;20029;-91
2021/07/10 13:23:43;;;;;;;0.73;0.55;;;25.20;67.10;;;;;;5016428;28;20021;-92
2021/07/10 13:26:26;;;;;;;0.00;0.00;;;25.10;68.60;;;;;;5016672;28;20041;-92
2021/07/10 13:29:04;;;;;;;0.50;0.50;;;25.10;67.40;;;;;;5016349;28;20029;-92
2021/07/10 13:31:37;;;;;;;0.90;0.40;;;25.10;68.70;;;;;;5016345;28;20079;-92
2021/07/10 13:34:07;;;;;;;1.25;0.32;;;25.20;68.80;;;;;;5016608;28;20038;-91
2021/07/10 13:36:35;;;;;;;3.85;0.45;;;25.20;68.80;;;;;;5015867;28;20437;-91